Time;durP1;ratioP1;P1;durP2;ratioP2;P2;SDS_P1;SDS_P2;PMS_P1;PMS_P2;Temp;Humidity;BMP_temperature;BMP_pressure;BME280_temperature;BME280_humidity;BME280_pressure;Samples;Min_cycle;Max_cycle;Signal;HPM_P1;HPM_P2
2022/03/27 00:02:18;;;;;;;9.20;4.63;;;8.50;99.90;;;;;;4975619;28;20172;-81
2022/03/27 00:04:44;;;;;;;8.43;4.70;;;8.50;99.90;;;;;;4976092;28;20177;-80
2022/03/27 00:07:10;;;;;;;8.87;4.43;;;8.40;99.90;;;;;;4975448;28;20307;-81
2022/03/27 00:09:36;;;;;;;9.53;4.63;;;8.40;99.90;;;;;;4975576;28;20332;-80
2022/03/27 00:12:03;;;;;;;8.40;5.03;;;8.40;99.90;;;;;;4974478;28;20697;-81
2022/03/27 00:14:29;;;;;;;9.47;5.40;;;8.40;99.90;;;;;;4975738;28;20263;-80
2022/03/27 00:16:55;;;;;;;8.03;4.93;;;8.30;99.90;;;;;;4975587;28;20165;-80
2022/03/27 00:19:20;;;;;;;8.40;4.63;;;8.30;99.90;;;;;;4975686;28;20184;-80
2022/03/27 00:21:46;;;;;;;8.03;4.77;;;8.30;99.90;;;;;;4975314;28;20172;-80
2022/03/27 00:24:12;;;;;;;9.73;5.50;;;8.30;99.90;;;;;;4975466;28;20275;-80
2022/03/27 00:26:38;;;;;;;9.37;4.93;;;8.20;99.90;;;;;;4975620;28;20503;-81
2022/03/27 00:29:04;;;;;;;9.60;4.80;;;8.20;99.90;;;;;;4975362;28;20195;-81
2022/03/27 00:31:35;;;;;;;6.40;4.33;;;8.20;99.90;;;;;;4975537;28;20185;-81
2022/03/27 00:34:01;;;;;;;12.63;5.80;;;8.20;99.90;;;;;;4975847;28;20176;-80
2022/03/27 00:36:27;;;;;;;6.90;4.83;;;8.20;99.90;;;;;;4975036;28;20180;-81
2022/03/27 00:38:52;;;;;;;8.90;5.23;;;8.10;99.90;;;;;;4975319;28;20188;-81
2022/03/27 00:41:18;;;;;;;11.27;5.70;;;8.10;99.90;;;;;;4975533;28;20187;-81
2022/03/27 00:43:44;;;;;;;8.53;5.50;;;8.10;99.90;;;;;;4975563;28;20224;-80
2022/03/27 00:46:11;;;;;;;7.07;5.50;;;8.00;99.90;;;;;;4975222;28;20207;-81
2022/03/27 00:48:37;;;;;;;10.90;5.27;;;7.90;99.90;;;;;;4975169;28;20219;-81
2022/03/27 00:51:03;;;;;;;7.40;5.57;;;7.80;99.90;;;;;;4974970;28;20173;-81
2022/03/27 00:53:30;;;;;;;11.67;5.20;;;7.80;99.90;;;;;;4979188;28;20643;-81
2022/03/27 00:55:56;;;;;;;9.47;5.70;;;7.70;99.90;;;;;;4979361;28;20192;-81
2022/03/27 00:58:22;;;;;;;7.00;5.20;;;7.70;99.90;;;;;;4978944;28;20176;-80
2022/03/27 01:00:55;;;;;;;7.47;5.50;;;7.60;99.90;;;;;;4979086;28;20188;-81
2022/03/27 01:03:24;;;;;;;9.10;5.37;;;7.70;99.90;;;;;;4979265;28;20260;-80
2022/03/27 01:05:52;;;;;;;9.77;5.20;;;7.70;99.90;;;;;;4978825;28;20196;-81
2022/03/27 01:09:35;;;;;;;7.33;5.07;;;7.80;99.90;;;;;;4978455;28;20228;-81
2022/03/27 01:11:20;;;;;;;9.13;5.07;;;7.70;99.90;;;;;;4978178;28;20564;-81
2022/03/27 01:13:48;;;;;;;8.27;4.90;;;7.70;99.90;;;;;;4979000;28;20169;-81
2022/03/27 01:16:37;;;;;;;9.27;4.83;;;7.70;99.90;;;;;;4978957;28;20509;-81
2022/03/27 01:19:04;;;;;;;8.20;4.90;;;7.70;99.90;;;;;;4978699;28;20169;-81
2022/03/27 01:21:30;;;;;;;9.67;5.57;;;7.70;99.90;;;;;;4978205;28;20188;-81
2022/03/27 01:23:56;;;;;;;8.60;5.73;;;7.60;99.90;;;;;;4978872;28;20188;-81
2022/03/27 01:26:23;;;;;;;7.77;5.50;;;7.60;99.90;;;;;;4978543;28;20172;-81
2022/03/27 01:28:50;;;;;;;6.17;5.10;;;7.60;99.90;;;;;;4978285;28;20268;-81
2022/03/27 01:31:15;;;;;;;7.67;5.27;;;7.70;99.90;;;;;;4978546;28;20620;-81
2022/03/27 01:33:41;;;;;;;8.47;5.83;;;7.70;99.90;;;;;;4978693;28;20192;-81
2022/03/27 01:36:07;;;;;;;9.87;6.17;;;7.60;99.90;;;;;;4978153;28;20169;-81
2022/03/27 01:38:32;;;;;;;10.43;5.93;;;7.60;99.90;;;;;;4978620;28;20185;-81
2022/03/27 01:40:58;;;;;;;8.87;5.73;;;7.60;99.90;;;;;;4978274;28;20253;-81
2022/03/27 01:43:24;;;;;;;8.27;5.47;;;7.70;99.90;;;;;;4978395;28;20177;-82
2022/03/27 01:45:49;;;;;;;8.20;5.80;;;7.70;99.90;;;;;;4978496;28;20181;-82
2022/03/27 01:48:15;;;;;;;8.43;5.70;;;7.70;99.90;;;;;;4978345;28;20302;-82
2022/03/27 01:50:41;;;;;;;10.57;6.17;;;7.70;99.90;;;;;;4977963;28;20271;-82
2022/03/27 01:53:06;;;;;;;12.57;6.70;;;7.70;99.90;;;;;;4992869;28;20196;-82
2022/03/27 01:58:15;;;;;;;12.70;7.07;;;7.60;99.90;;;;;;5388730;23;20244;-87
2022/03/27 02:00:43;;;;;;;10.20;6.73;;;7.60;99.90;;;;;;4994048;28;20183;-86
2022/03/27 02:03:09;;;;;;;11.37;6.30;;;7.50;99.90;;;;;;4993778;28;20180;-88
2022/03/27 02:05:35;;;;;;;7.97;6.13;;;7.50;99.90;;;;;;4994451;28;20187;-85
2022/03/27 02:08:01;;;;;;;11.00;6.70;;;7.60;99.90;;;;;;4993667;28;20211;-88
2022/03/27 02:10:27;;;;;;;11.83;7.03;;;7.60;99.90;;;;;;4993691;28;20271;-85
2022/03/27 02:12:53;;;;;;;13.97;7.97;;;7.60;99.90;;;;;;4993993;28;20176;-85
2022/03/27 02:15:19;;;;;;;11.97;7.50;;;7.60;99.90;;;;;;4993644;28;20211;-85
2022/03/27 02:17:45;;;;;;;14.83;7.87;;;7.50;99.90;;;;;;4993959;28;20183;-85
2022/03/27 02:20:11;;;;;;;13.63;7.33;;;7.50;99.90;;;;;;4993835;28;20190;-85
2022/03/27 02:22:37;;;;;;;13.53;7.17;;;7.40;99.90;;;;;;4988501;28;20645;-88
2022/03/27 02:25:04;;;;;;;9.53;6.53;;;7.40;99.90;;;;;;4975721;28;20175;-87
2022/03/27 02:27:30;;;;;;;12.30;7.53;;;7.40;99.90;;;;;;4975076;28;20192;-89
2022/03/27 02:29:55;;;;;;;9.77;6.80;;;7.50;99.90;;;;;;4975293;28;20165;-88
2022/03/27 02:32:21;;;;;;;11.97;7.87;;;7.60;99.90;;;;;;4974055;28;20173;-87
2022/03/27 02:34:47;;;;;;;11.90;7.47;;;7.50;99.90;;;;;;4973841;28;20637;-86
2022/03/27 02:37:13;;;;;;;11.47;7.23;;;7.50;99.90;;;;;;4989964;28;20227;-85
2022/03/27 02:39:40;;;;;;;10.57;7.17;;;7.40;99.90;;;;;;4975078;28;20196;-85
2022/03/27 02:42:06;;;;;;;10.80;7.57;;;7.30;99.90;;;;;;4974107;28;20264;-87
2022/03/27 02:44:32;;;;;;;11.97;7.20;;;7.40;99.90;;;;;;4973606;28;20263;-86
2022/03/27 02:46:59;;;;;;;15.23;8.10;;;7.30;99.90;;;;;;4973965;28;20715;-87
2022/03/27 02:49:24;;;;;;;12.73;7.70;;;7.30;99.90;;;;;;4973689;28;20200;-85
2022/03/27 02:51:50;;;;;;;13.90;7.43;;;7.30;99.90;;;;;;4973587;28;20532;-88
2022/03/27 02:54:16;;;;;;;13.40;8.10;;;7.30;99.90;;;;;;4973743;28;20228;-85
2022/03/27 02:56:42;;;;;;;11.40;7.80;;;7.40;99.90;;;;;;4989382;28;20172;-85
2022/03/27 02:59:08;;;;;;;13.40;8.13;;;7.30;99.90;;;;;;4989853;28;20227;-86
2022/03/27 03:01:34;;;;;;;12.70;7.43;;;7.30;99.90;;;;;;4989738;28;20256;-87
2022/03/27 03:04:02;;;;;;;14.10;7.97;;;7.30;99.90;;;;;;4974600;28;20157;-88
2022/03/27 03:06:30;;;;;;;12.33;7.77;;;7.30;99.90;;;;;;4974869;28;20171;-87
2022/03/27 03:08:57;;;;;;;12.33;7.53;;;7.20;99.90;;;;;;4989438;28;20216;-85
2022/03/27 03:11:22;;;;;;;13.73;8.43;;;7.30;99.90;;;;;;4989491;28;20179;-85
2022/03/27 03:13:50;;;;;;;13.20;8.30;;;7.20;99.90;;;;;;4988718;28;20177;-84
2022/03/27 03:16:16;;;;;;;9.80;7.33;;;7.10;99.90;;;;;;4989385;28;20169;-87
2022/03/27 03:18:44;;;;;;;14.43;7.57;;;7.20;99.90;;;;;;4989844;28;20201;-87
2022/03/27 03:21:10;;;;;;;13.87;7.80;;;7.30;99.90;;;;;;4989659;28;20177;-87
2022/03/27 03:23:36;;;;;;;14.97;8.23;;;7.20;99.90;;;;;;4992779;28;20184;-86
2022/03/27 03:26:04;;;;;;;11.50;7.00;;;7.30;99.90;;;;;;4992669;28;20179;-86
2022/03/27 03:28:29;;;;;;;11.07;7.40;;;7.20;99.90;;;;;;4992380;28;20215;-87
2022/03/27 03:30:55;;;;;;;11.40;6.90;;;7.30;99.90;;;;;;4992645;28;20513;-87
2022/03/27 03:33:21;;;;;;;14.23;8.30;;;7.30;99.90;;;;;;4992611;28;20263;-85
2022/03/27 03:35:47;;;;;;;13.90;7.60;;;7.30;99.90;;;;;;4992253;28;20180;-85
2022/03/27 03:38:12;;;;;;;15.10;8.33;;;7.30;99.90;;;;;;4992435;28;20266;-86
2022/03/27 03:40:41;;;;;;;13.87;7.47;;;7.30;99.90;;;;;;4992338;28;20640;-85
2022/03/27 03:43:07;;;;;;;14.47;8.23;;;7.30;99.90;;;;;;4992488;28;20176;-84
2022/03/27 03:45:33;;;;;;;12.17;8.13;;;7.20;99.90;;;;;;4992538;28;20242;-87
2022/03/27 03:47:59;;;;;;;13.47;7.67;;;7.10;99.90;;;;;;4992179;28;20247;-85
2022/03/27 03:50:26;;;;;;;12.73;8.00;;;7.10;99.90;;;;;;4992171;28;20204;-86
2022/03/27 03:52:52;;;;;;;13.10;7.90;;;7.10;99.90;;;;;;4992173;28;20183;-85
2022/03/27 03:55:18;;;;;;;18.67;7.70;;;7.10;99.90;;;;;;4992027;28;20219;-84
2022/03/27 03:57:43;;;;;;;13.70;8.13;;;7.10;99.90;;;;;;4992257;28;20666;-88
2022/03/27 04:00:10;;;;;;;11.80;7.07;;;7.10;99.90;;;;;;4993518;28;20560;-87
2022/03/27 04:02:36;;;;;;;12.13;7.00;;;7.20;99.90;;;;;;4991770;28;20186;-85
2022/03/27 04:05:02;;;;;;;13.50;7.70;;;7.20;99.90;;;;;;4992070;28;20176;-89
2022/03/27 04:07:28;;;;;;;12.40;7.50;;;7.20;99.90;;;;;;4991848;28;20214;-87
2022/03/27 04:09:53;;;;;;;11.03;7.00;;;7.20;99.90;;;;;;4991883;28;20509;-87
2022/03/27 04:12:20;;;;;;;13.70;7.60;;;7.10;99.90;;;;;;4991947;28;20172;-85
2022/03/27 04:14:47;;;;;;;11.80;7.83;;;7.20;99.90;;;;;;4991760;28;20168;-88
2022/03/27 04:17:15;;;;;;;17.10;8.20;;;7.10;99.90;;;;;;4991707;28;20172;-85
2022/03/27 04:19:41;;;;;;;12.30;7.60;;;7.10;99.90;;;;;;4992210;28;20234;-87
2022/03/27 04:22:07;;;;;;;14.73;7.00;;;7.10;99.90;;;;;;4991852;28;20270;-87
2022/03/27 04:24:33;;;;;;;12.23;7.90;;;7.10;99.90;;;;;;4991912;28;20618;-85
2022/03/27 04:26:59;;;;;;;12.83;7.80;;;7.10;99.90;;;;;;4991734;28;20208;-84
2022/03/27 04:29:25;;;;;;;13.83;7.83;;;7.10;99.90;;;;;;4991403;28;20230;-84
2022/03/27 04:31:51;;;;;;;10.97;7.53;;;7.10;99.90;;;;;;4992161;28;20176;-87
2022/03/27 04:34:17;;;;;;;10.87;7.03;;;7.10;99.90;;;;;;4991637;28;20223;-86
2022/03/27 04:36:43;;;;;;;13.00;7.17;;;7.20;99.90;;;;;;4991610;28;20715;-88
2022/03/27 04:39:09;;;;;;;14.80;7.80;;;7.20;99.90;;;;;;4991293;28;20279;-86
2022/03/27 04:41:36;;;;;;;12.00;7.63;;;7.20;99.90;;;;;;4990818;28;20259;-87
2022/03/27 04:44:02;;;;;;;14.23;7.60;;;7.10;99.90;;;;;;4991409;28;20184;-85
2022/03/27 04:46:29;;;;;;;13.27;7.70;;;7.10;99.90;;;;;;4991489;28;20168;-86
2022/03/27 04:48:56;;;;;;;16.27;8.63;;;7.00;99.90;;;;;;4991416;28;20294;-85
2022/03/27 04:51:21;;;;;;;16.93;8.13;;;7.00;99.90;;;;;;4991317;28;20183;-86
2022/03/27 04:53:49;;;;;;;15.07;8.13;;;7.00;99.90;;;;;;4991217;28;20176;-87
2022/03/27 04:56:15;;;;;;;16.53;8.37;;;7.00;99.90;;;;;;4991013;28;20230;-84
2022/03/27 04:58:41;;;;;;;14.63;7.77;;;7.00;99.90;;;;;;4991574;28;20235;-86
2022/03/27 05:01:07;;;;;;;16.33;7.83;;;7.00;99.90;;;;;;4991600;28;20525;-85
2022/03/27 05:03:32;;;;;;;13.33;8.13;;;7.00;99.90;;;;;;4991456;28;20180;-84
2022/03/27 05:05:59;;;;;;;12.97;7.53;;;7.00;99.90;;;;;;4992734;28;20171;-86
2022/03/27 05:08:26;;;;;;;11.87;7.23;;;7.00;99.90;;;;;;4990858;28;20228;-89
2022/03/27 05:10:51;;;;;;;11.67;7.30;;;7.00;99.90;;;;;;4991288;28;20709;-85
2022/03/27 05:13:18;;;;;;;11.53;6.97;;;7.00;99.90;;;;;;4990953;28;20179;-85
2022/03/27 05:15:44;;;;;;;13.27;7.07;;;7.00;99.90;;;;;;4991121;28;20646;-87
2022/03/27 05:18:10;;;;;;;12.23;7.13;;;7.10;99.90;;;;;;4992546;28;20266;-85
2022/03/27 05:20:39;;;;;;;10.60;6.90;;;7.10;99.90;;;;;;4991355;28;20172;-88
2022/03/27 05:23:05;;;;;;;15.10;7.80;;;7.20;99.90;;;;;;4992244;28;20167;-86
2022/03/27 05:25:40;;;;;;;11.67;6.93;;;7.10;99.90;;;;;;4990998;28;20172;-86
2022/03/27 05:28:10;;;;;;;14.17;7.47;;;7.20;99.90;;;;;;4975026;28;20286;-85
2022/03/27 05:30:36;;;;;;;15.47;7.93;;;7.10;99.90;;;;;;4992383;28;20183;-85
2022/03/27 05:33:03;;;;;;;14.27;7.73;;;7.20;99.90;;;;;;4991266;28;20176;-86
2022/03/27 05:35:29;;;;;;;13.97;7.57;;;7.20;99.90;;;;;;4991088;28;20191;-85
2022/03/27 05:37:55;;;;;;;9.47;6.67;;;7.20;99.90;;;;;;4992610;28;20207;-86
2022/03/27 05:40:22;;;;;;;15.33;7.30;;;7.30;99.90;;;;;;4994976;28;20242;-85
2022/03/27 05:42:49;;;;;;;14.03;7.00;;;7.30;99.90;;;;;;4982692;28;20239;-88
2022/03/27 05:45:15;;;;;;;11.20;7.33;;;7.40;99.90;;;;;;4975285;28;20239;-84
2022/03/27 05:47:41;;;;;;;13.70;7.70;;;7.40;99.90;;;;;;4974670;28;20204;-86
2022/03/27 05:50:10;;;;;;;11.63;7.30;;;7.40;99.90;;;;;;4974960;28;20173;-87
2022/03/27 05:52:36;;;;;;;12.50;8.00;;;7.40;99.90;;;;;;4976355;28;20195;-85
2022/03/27 05:55:03;;;;;;;14.33;7.67;;;7.50;99.90;;;;;;4975024;28;20180;-87
2022/03/27 05:57:30;;;;;;;13.10;7.10;;;7.50;99.90;;;;;;4974153;28;20227;-84
2022/03/27 05:59:56;;;;;;;11.73;7.60;;;7.60;99.90;;;;;;4991323;28;20272;-86
2022/03/27 06:02:21;;;;;;;11.40;7.57;;;7.60;99.90;;;;;;4974717;28;20252;-86
2022/03/27 06:04:47;;;;;;;10.70;8.03;;;7.70;99.90;;;;;;4974523;28;20332;-88
2022/03/27 06:07:13;;;;;;;20.30;8.43;;;7.70;99.90;;;;;;4974287;28;20196;-87
2022/03/27 06:09:39;;;;;;;9.83;7.67;;;7.80;99.90;;;;;;4974319;28;20196;-86
2022/03/27 06:12:05;;;;;;;14.53;8.20;;;7.80;99.90;;;;;;4975880;28;20531;-86
2022/03/27 06:14:32;;;;;;;14.07;8.17;;;7.80;99.90;;;;;;4974602;28;20185;-88
2022/03/27 06:16:58;;;;;;;17.00;8.73;;;7.80;99.90;;;;;;4974819;28;20192;-86
2022/03/27 06:19:23;;;;;;;12.57;7.63;;;7.80;99.90;;;;;;4975639;28;20676;-87
2022/03/27 06:21:52;;;;;;;14.67;8.03;;;7.70;99.90;;;;;;4975124;28;20253;-84
2022/03/27 06:24:18;;;;;;;12.00;7.83;;;7.80;99.90;;;;;;4974526;28;20187;-87
2022/03/27 06:26:44;;;;;;;12.70;8.17;;;7.80;99.90;;;;;;4974386;28;20547;-87
2022/03/27 06:29:10;;;;;;;14.37;8.40;;;7.80;99.90;;;;;;4975508;28;20333;-86
2022/03/27 06:31:38;;;;;;;15.43;8.43;;;7.70;99.90;;;;;;4974280;28;20165;-85
2022/03/27 06:34:06;;;;;;;14.87;8.13;;;7.60;99.90;;;;;;4977208;28;20167;-85
2022/03/27 06:36:32;;;;;;;14.23;7.97;;;7.60;99.90;;;;;;4994587;28;20569;-86
2022/03/27 06:38:57;;;;;;;14.10;8.63;;;7.70;99.90;;;;;;5006287;28;20754;-85
2022/03/27 06:41:23;;;;;;;11.53;7.77;;;7.70;99.90;;;;;;5013069;28;20270;-87
2022/03/27 06:43:49;;;;;;;10.77;7.17;;;7.80;99.90;;;;;;4993232;28;20632;-84
2022/03/27 06:46:17;;;;;;;14.00;9.10;;;7.90;99.90;;;;;;4993283;28;20203;-88
2022/03/27 06:48:48;;;;;;;13.87;8.00;;;8.00;99.90;;;;;;4992511;28;20222;-86
2022/03/27 06:51:14;;;;;;;14.83;8.43;;;8.00;99.90;;;;;;4994332;28;20243;-86
2022/03/27 06:53:41;;;;;;;18.37;9.47;;;8.00;99.90;;;;;;4996188;28;20175;-84
2022/03/27 06:56:07;;;;;;;14.93;9.73;;;8.10;99.90;;;;;;5002305;28;20589;-85
2022/03/27 06:58:33;;;;;;;16.97;9.50;;;8.10;99.90;;;;;;5012113;28;20313;-86
2022/03/27 07:03:45;;;;;;;15.60;9.87;;;8.00;99.90;;;;;;5014018;28;20602;-84
2022/03/27 07:06:13;;;;;;;14.00;9.97;;;8.00;99.90;;;;;;5012761;28;20210;-88
2022/03/27 07:08:39;;;;;;;16.23;9.90;;;8.10;99.90;;;;;;5012523;28;20562;-84
2022/03/27 07:11:05;;;;;;;21.27;10.37;;;8.10;99.90;;;;;;5012467;28;20175;-85
2022/03/27 07:13:31;;;;;;;17.13;10.57;;;8.10;99.90;;;;;;5001490;28;20187;-85
2022/03/27 07:15:57;;;;;;;19.17;10.83;;;8.10;99.90;;;;;;5013219;28;20574;-85
2022/03/27 07:18:24;;;;;;;16.77;10.67;;;8.10;99.90;;;;;;5012373;28;20552;-85
2022/03/27 07:20:50;;;;;;;17.03;10.70;;;8.00;99.90;;;;;;5012405;28;20171;-85
2022/03/27 07:23:21;;;;;;;19.73;10.97;;;8.10;99.90;;;;;;5012374;28;20191;-86
2022/03/27 07:25:49;;;;;;;21.97;10.90;;;8.20;99.90;;;;;;5013679;28;20167;-86
2022/03/27 07:28:18;;;;;;;15.37;9.77;;;8.20;99.90;;;;;;5012911;28;20207;-84
2022/03/27 07:30:48;;;;;;;15.60;9.83;;;8.30;99.90;;;;;;5013322;28;20164;-87
2022/03/27 07:33:16;;;;;;;16.23;9.87;;;8.20;99.90;;;;;;5013326;28;20167;-85
2022/03/27 07:35:42;;;;;;;19.93;10.30;;;8.30;99.90;;;;;;5011965;28;20681;-89
2022/03/27 07:38:08;;;;;;;19.03;10.50;;;8.40;99.90;;;;;;5011905;28;20210;-87
2022/03/27 07:40:35;;;;;;;21.03;9.80;;;8.50;99.90;;;;;;5011656;28;20175;-85
2022/03/27 07:43:03;;;;;;;20.00;11.00;;;8.50;99.90;;;;;;4998575;28;20199;-85
2022/03/27 07:45:30;;;;;;;17.20;9.33;;;8.50;99.90;;;;;;4992371;28;20191;-88
2022/03/27 07:47:57;;;;;;;15.43;10.37;;;8.50;99.90;;;;;;5010716;28;20202;-86
2022/03/27 07:50:27;;;;;;;17.07;11.13;;;8.40;99.90;;;;;;4997819;28;20204;-86
2022/03/27 07:52:54;;;;;;;18.37;10.77;;;8.40;99.90;;;;;;4997827;28;20172;-85
2022/03/27 07:55:20;;;;;;;17.13;10.47;;;8.50;99.90;;;;;;5002750;28;20686;-86
2022/03/27 07:57:46;;;;;;;16.07;9.73;;;8.70;99.90;;;;;;4999692;28;20226;-86
2022/03/27 08:00:14;;;;;;;17.10;10.73;;;8.70;99.90;;;;;;5010142;28;20635;-87
2022/03/27 08:02:41;;;;;;;18.03;10.67;;;8.80;99.90;;;;;;5011431;28;20183;-86
2022/03/27 08:05:08;;;;;;;15.37;9.93;;;8.90;99.90;;;;;;5011955;28;20623;-88
2022/03/27 08:07:34;;;;;;;16.20;10.00;;;9.00;99.90;;;;;;5011037;28;20210;-86
2022/03/27 08:10:00;;;;;;;18.87;9.80;;;9.10;99.90;;;;;;5011840;28;20171;-85
2022/03/27 08:12:27;;;;;;;19.23;10.80;;;9.10;99.90;;;;;;5002698;28;20195;-88
2022/03/27 08:14:53;;;;;;;15.73;10.73;;;9.20;99.90;;;;;;4992133;28;20172;-90
2022/03/27 08:17:20;;;;;;;16.83;10.37;;;9.30;99.90;;;;;;4991977;28;20643;-85
2022/03/27 08:19:47;;;;;;;14.50;10.27;;;9.30;99.90;;;;;;4991776;28;20259;-87
2022/03/27 08:22:14;;;;;;;14.97;10.10;;;9.30;99.90;;;;;;4991793;28;20168;-86
2022/03/27 08:24:40;;;;;;;17.17;10.90;;;9.40;99.90;;;;;;4991428;28;20172;-88
2022/03/27 08:27:07;;;;;;;20.07;11.83;;;9.40;99.90;;;;;;4992305;28;20240;-89
2022/03/27 08:29:34;;;;;;;21.00;12.53;;;9.50;99.90;;;;;;4991206;28;20203;-89
2022/03/27 08:32:02;;;;;;;24.27;12.70;;;9.50;99.90;;;;;;4991195;28;20191;-89
2022/03/27 08:34:31;;;;;;;24.00;13.63;;;9.50;99.90;;;;;;5008127;28;20635;-88
2022/03/27 08:36:58;;;;;;;25.00;13.77;;;9.50;99.90;;;;;;5011873;28;20165;-88
2022/03/27 08:39:25;;;;;;;27.23;14.33;;;9.40;99.90;;;;;;5010458;28;20226;-87
2022/03/27 08:41:54;;;;;;;27.53;13.70;;;9.50;99.90;;;;;;5006357;28;20187;-88
2022/03/27 08:44:22;;;;;;;23.37;14.60;;;9.50;99.90;;;;;;4989608;28;20172;-88
2022/03/27 08:46:50;;;;;;;21.43;13.53;;;9.50;99.90;;;;;;4990197;28;20175;-88
2022/03/27 08:49:33;;;;;;;30.63;15.37;;;9.50;99.90;;;;;;4989701;28;20220;-88
2022/03/27 08:52:09;;;;;;;25.10;13.77;;;9.60;99.90;;;;;;4990206;28;20168;-90
2022/03/27 08:55:06;;;;;;;30.57;14.70;;;9.70;99.90;;;;;;4990934;28;20226;-87
2022/03/27 08:57:54;;;;;;;26.17;14.00;;;9.80;99.90;;;;;;4990964;28;20231;-89
2022/03/27 09:00:21;;;;;;;22.63;14.10;;;10.00;99.90;;;;;;4991085;28;20183;-86
2022/03/27 09:02:47;;;;;;;27.47;15.10;;;10.00;99.90;;;;;;4990867;28;20196;-87
2022/03/27 09:05:14;;;;;;;26.80;15.67;;;10.00;99.90;;;;;;4990575;28;20191;-87
2022/03/27 09:07:41;;;;;;;27.77;15.23;;;10.10;99.90;;;;;;4990860;28;20223;-92
2022/03/27 09:10:12;;;;;;;24.57;14.83;;;10.20;99.90;;;;;;4990447;28;20195;-93
2022/03/27 09:12:38;;;;;;;25.67;13.60;;;10.20;99.90;;;;;;4993865;28;20191;-86
2022/03/27 09:15:10;;;;;;;22.70;13.20;;;10.20;99.90;;;;;;4992359;28;20176;-87
2022/03/27 09:18:04;;;;;;;24.03;14.07;;;10.20;99.90;;;;;;4991423;28;20184;-88
2022/03/27 09:20:46;;;;;;;22.70;13.63;;;10.20;99.90;;;;;;4989376;28;20168;-88
2022/03/27 09:23:27;;;;;;;23.13;13.33;;;10.30;99.90;;;;;;4994173;28;20262;-87
2022/03/27 09:25:57;;;;;;;22.53;12.87;;;10.40;99.90;;;;;;4994227;28;20180;-88
2022/03/27 09:28:25;;;;;;;19.60;13.20;;;10.50;99.90;;;;;;4992688;28;20313;-86
2022/03/27 09:30:51;;;;;;;25.87;13.77;;;10.50;99.90;;;;;;4993284;28;20180;-86
2022/03/27 09:33:31;;;;;;;20.67;12.83;;;10.60;99.90;;;;;;4993916;28;20168;-89
2022/03/27 09:36:08;;;;;;;18.67;13.47;;;10.50;99.90;;;;;;4993748;28;20179;-87
2022/03/27 09:38:35;;;;;;;23.07;14.30;;;10.60;99.90;;;;;;4992609;28;20214;-87
2022/03/27 09:41:02;;;;;;;26.50;15.73;;;10.70;99.90;;;;;;4993772;28;20182;-90
2022/03/27 09:43:28;;;;;;;25.83;14.53;;;10.90;99.90;;;;;;4988308;28;20189;-90
2022/03/27 09:46:00;;;;;;;24.57;14.50;;;11.00;99.90;;;;;;5009408;28;20182;-88
2022/03/27 09:48:26;;;;;;;29.33;15.60;;;11.10;99.90;;;;;;4993275;28;20215;-88
2022/03/27 09:50:54;;;;;;;26.67;14.77;;;11.20;99.90;;;;;;4992171;28;20186;-89
2022/03/27 09:53:25;;;;;;;25.33;14.73;;;11.30;99.90;;;;;;4994656;28;20668;-88
2022/03/27 09:55:59;;;;;;;24.67;14.20;;;11.40;99.90;;;;;;4993310;28;20176;-90
2022/03/27 09:58:43;;;;;;;20.92;14.25;;;11.50;99.90;;;;;;4993402;28;20228;-88
2022/03/27 10:01:24;;;;;;;23.00;14.88;;;11.50;99.90;;;;;;4993492;28;20180;-90
2022/03/27 10:04:13;;;;;;;21.33;14.73;;;11.70;99.90;;;;;;4993710;28;20175;-89
2022/03/27 10:06:42;;;;;;;23.50;14.53;;;11.90;99.90;;;;;;4993411;28;20179;-88
2022/03/27 10:09:10;;;;;;;25.02;15.10;;;11.90;99.90;;;;;;4992800;28;20346;-89
2022/03/27 10:11:37;;;;;;;23.98;16.08;;;12.10;99.90;;;;;;4989037;28;20177;-90
2022/03/27 10:14:04;;;;;;;26.77;15.20;;;12.30;99.90;;;;;;4992756;28;20664;-87
2022/03/27 10:16:44;;;;;;;29.92;15.63;;;12.60;99.90;;;;;;4993205;28;20175;-89
2022/03/27 10:19:25;;;;;;;22.13;15.07;;;12.90;99.90;;;;;;4993036;28;20311;-87
2022/03/27 10:21:53;;;;;;;25.08;15.23;;;12.90;99.90;;;;;;4994081;28;20168;-87
2022/03/27 10:24:19;;;;;;;23.05;15.60;;;13.20;99.90;;;;;;4992370;28;20238;-88
2022/03/27 10:26:47;;;;;;;21.52;14.38;;;13.00;99.90;;;;;;4993462;28;20651;-88
2022/03/27 10:29:14;;;;;;;20.17;14.75;;;13.00;99.90;;;;;;4992641;28;20306;-87
2022/03/27 10:31:41;;;;;;;22.77;15.70;;;13.20;99.90;;;;;;4992973;28;20187;-90
2022/03/27 10:34:10;;;;;;;26.00;15.60;;;13.10;99.90;;;;;;4992796;28;20176;-88
2022/03/27 10:36:53;;;;;;;25.35;15.55;;;13.20;99.90;;;;;;4992501;28;20180;-89
2022/03/27 10:39:25;;;;;;;21.52;14.93;;;13.20;99.90;;;;;;5000897;28;20349;-91
2022/03/27 10:42:22;;;;;;;23.50;15.05;;;13.30;99.90;;;;;;5003443;28;20195;-88
2022/03/27 10:45:03;;;;;;;22.58;15.40;;;13.30;99.90;;;;;;5005024;28;20886;-87
2022/03/27 10:47:29;;;;;;;21.33;14.93;;;13.30;99.90;;;;;;5013255;28;20270;-90
2022/03/27 10:50:01;;;;;;;23.52;15.90;;;13.20;99.90;;;;;;4992480;28;20593;-90
2022/03/27 10:52:36;;;;;;;26.20;15.18;;;13.20;99.90;;;;;;4992324;28;20172;-87
2022/03/27 10:55:08;;;;;;;21.88;15.35;;;13.30;99.90;;;;;;4992437;28;20175;-90
2022/03/27 10:57:36;;;;;;;23.75;14.63;;;13.30;99.90;;;;;;4993406;28;20255;-88
2022/03/27 11:00:07;;;;;;;27.08;14.95;;;13.30;99.90;;;;;;4992312;28;20176;-89
2022/03/27 11:02:49;;;;;;;26.92;14.52;;;13.20;99.90;;;;;;4992419;28;20186;-88
2022/03/27 11:05:31;;;;;;;22.90;14.77;;;13.40;99.90;;;;;;5001705;28;20191;-87
2022/03/27 11:08:16;;;;;;;21.98;14.30;;;13.50;99.90;;;;;;5013095;28;20290;-88
2022/03/27 11:10:50;;;;;;;20.63;14.13;;;13.60;99.90;;;;;;5013468;28;20190;-88
2022/03/27 11:13:31;;;;;;;19.48;13.25;;;13.60;99.90;;;;;;4998399;28;20188;-89
2022/03/27 11:16:15;;;;;;;19.13;14.00;;;13.40;99.90;;;;;;4993938;28;20207;-87
2022/03/27 11:18:48;;;;;;;17.58;13.50;;;13.60;99.90;;;;;;4994294;28;20204;-89
2022/03/27 11:21:29;;;;;;;20.05;14.07;;;13.70;99.90;;;;;;4993900;28;20164;-88
2022/03/27 11:24:04;;;;;;;20.45;13.63;;;13.80;99.90;;;;;;4997708;28;20209;-87
2022/03/27 11:26:29;;;;;;;19.25;13.57;;;13.90;99.90;;;;;;5005045;28;20647;-90
2022/03/27 11:29:04;;;;;;;20.00;13.55;;;14.00;99.90;;;;;;5012349;28;20257;-90
2022/03/27 11:31:33;;;;;;;18.15;12.75;;;14.00;99.90;;;;;;5011124;28;20166;-89
2022/03/27 11:34:08;;;;;;;18.33;13.20;;;14.00;99.90;;;;;;5012652;28;20159;-87
2022/03/27 11:36:39;;;;;;;19.73;13.82;;;14.00;99.90;;;;;;5010732;28;20208;-87
2022/03/27 11:39:13;;;;;;;17.63;12.88;;;14.10;99.90;;;;;;5010937;28;20300;-90
2022/03/27 11:41:44;;;;;;;18.63;12.77;;;14.10;99.90;;;;;;5011245;28;20198;-87
2022/03/27 11:47:16;;;;;;;18.00;11.82;;;14.30;99.90;;;;;;5011388;28;20206;-87
2022/03/27 11:49:43;;;;;;;17.83;12.13;;;14.30;99.90;;;;;;5010278;28;20202;-87
2022/03/27 11:52:13;;;;;;;20.20;11.98;;;14.50;99.90;;;;;;5010252;28;20167;-89
2022/03/27 11:54:41;;;;;;;17.85;11.57;;;14.60;99.90;;;;;;5011378;28;20206;-87
2022/03/27 11:57:07;;;;;;;15.95;12.40;;;14.40;99.90;;;;;;5010752;28;20231;-87
2022/03/27 11:59:52;;;;;;;18.88;13.10;;;14.60;99.90;;;;;;5011630;28;20667;-88
2022/03/27 12:02:22;;;;;;;16.95;11.80;;;14.80;99.90;;;;;;5010674;28;20179;-87
2022/03/27 12:04:57;;;;;;;16.85;11.80;;;15.00;99.90;;;;;;5011125;28;20199;-87
2022/03/27 12:07:24;;;;;;;15.93;11.88;;;15.00;99.90;;;;;;5010265;28;20217;-87
2022/03/27 12:09:59;;;;;;;15.57;11.85;;;15.10;99.90;;;;;;5010543;28;20205;-89
2022/03/27 12:12:26;;;;;;;15.02;11.63;;;15.20;99.90;;;;;;5002067;28;20192;-87
2022/03/27 12:15:05;;;;;;;14.65;11.30;;;15.30;99.90;;;;;;4991838;28;20558;-89
2022/03/27 12:17:32;;;;;;;15.93;12.18;;;15.30;99.90;;;;;;4991139;28;20195;-89
2022/03/27 12:20:05;;;;;;;17.58;11.73;;;15.30;99.90;;;;;;4990603;28;20251;-89
2022/03/27 12:22:44;;;;;;;17.92;11.88;;;15.40;99.90;;;;;;4990712;28;20184;-88
2022/03/27 12:25:28;;;;;;;15.23;11.77;;;15.30;99.90;;;;;;4990416;28;20206;-88
2022/03/27 12:30:48;;;;;;;16.88;12.07;;;15.40;99.90;;;;;;4992029;28;20171;-89
2022/03/27 12:33:17;;;;;;;16.88;12.38;;;15.60;99.90;;;;;;4990842;28;20565;-88
2022/03/27 12:35:43;;;;;;;20.80;11.93;;;15.70;99.90;;;;;;4990488;28;20176;-89
2022/03/27 12:38:09;;;;;;;15.55;11.30;;;15.90;99.90;;;;;;4990500;28;20211;-89
2022/03/27 12:40:43;;;;;;;16.80;11.77;;;15.90;99.90;;;;;;4990733;28;20195;-89
2022/03/27 12:43:14;;;;;;;20.52;11.20;;;15.90;99.90;;;;;;4990485;28;20194;-88
2022/03/27 12:45:41;;;;;;;16.05;11.90;;;16.00;99.90;;;;;;4990884;28;20168;-87
2022/03/27 12:48:18;;;;;;;14.23;11.38;;;15.90;99.90;;;;;;4994323;28;20223;-89
2022/03/27 12:50:49;;;;;;;15.75;10.93;;;15.90;99.90;;;;;;5010754;28;20237;-88
2022/03/27 12:53:21;;;;;;;16.77;11.18;;;16.20;99.90;;;;;;4995449;28;20187;-88
2022/03/27 12:55:48;;;;;;;16.70;11.25;;;16.30;99.90;;;;;;4994776;28;20183;-88
2022/03/27 12:58:16;;;;;;;17.95;11.25;;;16.30;99.90;;;;;;4994169;28;20231;-90
2022/03/27 13:00:44;;;;;;;16.42;11.05;;;16.20;99.90;;;;;;4994271;28;20175;-90